Time;durP1;ratioP1;P1;durP2;ratioP2;P2;SDS_P1;SDS_P2;PMS_P1;PMS_P2;Temp;Humidity;BMP_temperature;BMP_pressure;BME280_temperature;BME280_humidity;BME280_pressure;Samples;Min_cycle;Max_cycle;Signal;HPM_P1;HPM_P2
2021/09/07 00:02:10;;;;;;;5.10;4.10;;;14.90;99.90;;;;;;5070227;28;20181;-80
2021/09/07 00:04:36;;;;;;;6.57;5.10;;;14.90;99.90;;;;;;5056947;28;20192;-80
2021/09/07 00:07:02;;;;;;;7.97;5.05;;;14.90;99.90;;;;;;5076074;28;20188;-80
2021/09/07 00:09:27;;;;;;;6.22;4.50;;;14.90;99.90;;;;;;5058756;28;20185;-78
2021/09/07 00:11:53;;;;;;;8.02;4.15;;;14.90;99.90;;;;;;5075281;28;21297;-79
2021/09/07 00:14:19;;;;;;;6.43;4.75;;;14.90;99.90;;;;;;5056296;28;20194;-79
2021/09/07 00:16:45;;;;;;;7.85;5.05;;;14.90;99.90;;;;;;5057865;28;20200;-79
2021/09/07 00:19:10;;;;;;;6.20;4.47;;;14.90;99.90;;;;;;5072442;28;20193;-78
2021/09/07 00:21:36;;;;;;;7.15;4.82;;;14.90;99.90;;;;;;5056647;28;20200;-79
2021/09/07 00:24:01;;;;;;;5.95;4.93;;;14.90;99.90;;;;;;5074702;28;20193;-81
2021/09/07 00:26:27;;;;;;;8.30;4.85;;;14.90;99.90;;;;;;5057049;28;20245;-80
2021/09/07 00:28:52;;;;;;;5.93;4.50;;;14.80;99.90;;;;;;5074912;28;20231;-80
2021/09/07 00:31:18;;;;;;;6.95;4.55;;;14.80;99.90;;;;;;5074739;28;20278;-80
2021/09/07 00:33:43;;;;;;;6.80;4.97;;;14.80;99.90;;;;;;5075234;28;20201;-80
2021/09/07 00:36:09;;;;;;;6.85;4.88;;;14.80;99.90;;;;;;5074033;28;20200;-80
2021/09/07 00:38:35;;;;;;;8.13;5.20;;;14.80;99.90;;;;;;5056806;28;20204;-80
2021/09/07 00:41:00;;;;;;;7.43;4.82;;;14.80;99.90;;;;;;5073854;28;20413;-80
2021/09/07 00:43:26;;;;;;;6.60;4.68;;;14.80;99.90;;;;;;5056654;28;20265;-79
2021/09/07 00:45:51;;;;;;;6.18;4.75;;;14.80;99.90;;;;;;5053188;28;20193;-80
2021/09/07 00:48:17;;;;;;;6.03;4.15;;;14.80;99.90;;;;;;5070026;28;20192;-79
2021/09/07 00:50:43;;;;;;;5.97;4.25;;;14.80;99.90;;;;;;5049636;28;20745;-79
2021/09/07 00:53:08;;;;;;;7.30;4.70;;;14.70;99.90;;;;;;5068750;28;20300;-79
2021/09/07 00:55:34;;;;;;;6.47;4.88;;;14.80;99.90;;;;;;5069647;28;20257;-78
2021/09/07 00:58:03;;;;;;;7.18;4.93;;;14.70;99.90;;;;;;5069336;28;20188;-80
2021/09/07 01:00:29;;;;;;;7.03;4.97;;;14.70;99.90;;;;;;5050867;28;20642;-79
2021/09/07 01:02:55;;;;;;;6.97;4.53;;;14.80;99.90;;;;;;5050725;28;20186;-77
2021/09/07 01:05:20;;;;;;;7.70;5.20;;;14.80;99.90;;;;;;5068914;28;20194;-78
2021/09/07 01:07:46;;;;;;;8.38;4.82;;;14.90;99.90;;;;;;5069484;28;20630;-79
2021/09/07 01:10:11;;;;;;;7.32;5.20;;;15.00;99.90;;;;;;5050898;28;20221;-79
2021/09/07 01:12:37;;;;;;;6.45;5.03;;;14.90;99.90;;;;;;5051305;28;20204;-80
2021/09/07 01:15:04;;;;;;;8.10;4.95;;;14.80;99.90;;;;;;5049675;28;20211;-78
2021/09/07 01:17:30;;;;;;;6.88;4.45;;;14.80;99.90;;;;;;5048600;28;20186;-78
2021/09/07 01:19:55;;;;;;;5.90;4.28;;;14.70;99.90;;;;;;5065818;28;20196;-80
2021/09/07 01:22:22;;;;;;;7.82;4.65;;;14.50;99.90;;;;;;5049150;28;20551;-79
2021/09/07 01:24:49;;;;;;;6.97;4.85;;;14.50;99.90;;;;;;5048125;28;20178;-78
2021/09/07 01:27:15;;;;;;;7.15;4.88;;;14.40;99.90;;;;;;5067377;28;20188;-78
2021/09/07 01:29:42;;;;;;;5.80;4.32;;;14.40;99.90;;;;;;5066996;28;20236;-79
2021/09/07 01:32:09;;;;;;;7.43;5.03;;;14.30;99.90;;;;;;5066478;28;20264;-78
2021/09/07 01:34:35;;;;;;;5.85;4.45;;;14.20;99.90;;;;;;5066183;28;20205;-77
2021/09/07 01:37:01;;;;;;;5.65;4.43;;;14.20;99.90;;;;;;5048709;28;20208;-79
2021/09/07 01:39:27;;;;;;;6.53;4.95;;;14.10;99.90;;;;;;5047656;28;20660;-79
2021/09/07 01:41:53;;;;;;;5.80;4.22;;;14.20;99.90;;;;;;5048790;28;20311;-79
2021/09/07 01:44:20;;;;;;;6.13;4.30;;;14.10;99.90;;;;;;5065475;28;20189;-77
2021/09/07 01:46:45;;;;;;;8.02;4.43;;;14.10;99.90;;;;;;5048396;28;21126;-78
2021/09/07 01:49:13;;;;;;;6.63;4.82;;;14.10;99.90;;;;;;5048422;28;20197;-77
2021/09/07 01:51:39;;;;;;;11.13;4.70;;;14.10;99.90;;;;;;5065983;28;20213;-79
2021/09/07 01:54:06;;;;;;;6.20;4.80;;;14.10;99.90;;;;;;5064974;28;20231;-78
2021/09/07 01:56:32;;;;;;;6.50;4.03;;;14.10;99.90;;;;;;5065937;28;20182;-80
2021/09/07 01:58:58;;;;;;;6.30;4.90;;;14.00;99.90;;;;;;5065727;28;20196;-78
2021/09/07 02:01:23;;;;;;;6.72;4.97;;;14.10;99.90;;;;;;5065018;28;20193;-79
2021/09/07 02:03:49;;;;;;;6.90;5.25;;;14.20;99.90;;;;;;5065506;28;20289;-79
2021/09/07 02:06:15;;;;;;;7.75;5.18;;;14.10;99.90;;;;;;5049832;28;20234;-77
2021/09/07 02:08:41;;;;;;;7.47;5.15;;;14.00;99.90;;;;;;5067517;28;20182;-78
2021/09/07 02:11:07;;;;;;;5.95;4.40;;;13.90;99.90;;;;;;5049272;28;20240;-78
2021/09/07 02:13:32;;;;;;;6.70;4.50;;;14.00;99.90;;;;;;5067337;28;20229;-79
2021/09/07 02:15:58;;;;;;;6.68;4.72;;;13.90;99.90;;;;;;5049565;28;20201;-79
2021/09/07 02:18:23;;;;;;;9.20;4.93;;;13.90;99.90;;;;;;5041164;28;20215;-78
2021/09/07 02:20:49;;;;;;;6.15;4.70;;;13.80;99.90;;;;;;5067038;28;20198;-76
2021/09/07 02:23:14;;;;;;;6.95;4.95;;;13.60;99.90;;;;;;5067020;28;21193;-81
2021/09/07 02:25:40;;;;;;;7.45;5.10;;;13.60;99.90;;;;;;5049285;28;20280;-78
2021/09/07 02:28:06;;;;;;;7.93;5.28;;;13.70;99.90;;;;;;5067716;28;20181;-77
2021/09/07 02:30:31;;;;;;;7.15;5.38;;;13.60;99.90;;;;;;5049153;28;20613;-79
2021/09/07 02:32:59;;;;;;;7.70;4.88;;;13.50;99.90;;;;;;5067467;28;20211;-81
2021/09/07 02:35:25;;;;;;;6.57;4.60;;;13.50;99.90;;;;;;5049115;28;20188;-78
2021/09/07 02:37:50;;;;;;;6.45;4.82;;;13.40;99.90;;;;;;5048802;28;20240;-80
2021/09/07 02:40:16;;;;;;;6.68;5.07;;;13.40;99.90;;;;;;5065506;28;20296;-78
2021/09/07 02:42:42;;;;;;;6.75;5.13;;;13.30;99.90;;;;;;5049039;28;20189;-78
2021/09/07 02:45:08;;;;;;;7.60;5.35;;;13.30;99.90;;;;;;5066940;28;20200;-79
2021/09/07 02:47:33;;;;;;;10.52;5.18;;;13.20;99.90;;;;;;5048934;28;20205;-77
2021/09/07 02:49:59;;;;;;;7.07;4.45;;;13.20;99.90;;;;;;5066884;28;20279;-79
2021/09/07 02:52:24;;;;;;;6.80;5.03;;;13.20;99.90;;;;;;5049144;28;20174;-79
2021/09/07 02:54:50;;;;;;;7.30;4.90;;;13.20;99.90;;;;;;5066623;28;20208;-80
2021/09/07 02:57:16;;;;;;;6.45;4.78;;;13.20;99.90;;;;;;5066387;28;20192;-79
2021/09/07 02:59:41;;;;;;;8.38;5.60;;;13.20;99.90;;;;;;5066668;28;20195;-79
2021/09/07 03:02:07;;;;;;;7.68;5.10;;;13.20;99.90;;;;;;5048626;28;20220;-79
2021/09/07 03:04:32;;;;;;;6.93;4.70;;;13.20;99.90;;;;;;5048380;28;20681;-81
2021/09/07 03:06:58;;;;;;;7.97;5.25;;;13.20;99.90;;;;;;5065907;28;20261;-79
2021/09/07 03:09:23;;;;;;;6.03;4.38;;;13.30;99.90;;;;;;5066755;28;20189;-79
2021/09/07 03:11:49;;;;;;;6.45;4.75;;;13.30;99.90;;;;;;5048330;28;20212;-77
2021/09/07 03:14:15;;;;;;;9.35;5.10;;;13.20;99.90;;;;;;5065142;28;20210;-77
2021/09/07 03:16:40;;;;;;;6.10;4.40;;;13.20;99.90;;;;;;5064280;28;20292;-78
2021/09/07 03:19:06;;;;;;;7.20;4.90;;;13.20;99.90;;;;;;5048065;28;20204;-77
2021/09/07 03:21:31;;;;;;;7.63;4.65;;;13.30;99.90;;;;;;5066087;28;20197;-79
2021/09/07 03:23:57;;;;;;;7.20;5.10;;;13.30;99.90;;;;;;5047999;28;20337;-80
2021/09/07 03:26:23;;;;;;;6.35;4.80;;;13.30;99.90;;;;;;5048273;28;20231;-79
2021/09/07 03:28:48;;;;;;;8.00;4.82;;;13.30;99.90;;;;;;5048171;28;20214;-79
2021/09/07 03:31:14;;;;;;;7.57;4.90;;;13.30;99.90;;;;;;5048274;28;20197;-78
2021/09/07 03:33:39;;;;;;;7.32;4.93;;;13.30;99.90;;;;;;5047938;28;20213;-80
2021/09/07 03:36:05;;;;;;;6.40;4.68;;;13.30;99.90;;;;;;5047953;28;20241;-79
2021/09/07 03:38:31;;;;;;;6.90;4.88;;;13.30;99.90;;;;;;5066356;28;20185;-79
2021/09/07 03:40:57;;;;;;;8.07;5.10;;;13.30;99.90;;;;;;5048160;28;20253;-79
2021/09/07 03:43:23;;;;;;;7.97;5.25;;;13.30;99.90;;;;;;5048064;28;20686;-81
2021/09/07 03:45:48;;;;;;;6.78;4.70;;;13.30;99.90;;;;;;5047115;28;20246;-79
2021/09/07 03:48:14;;;;;;;7.00;4.85;;;13.30;99.90;;;;;;5063897;28;20194;-78
2021/09/07 03:50:39;;;;;;;7.63;4.70;;;13.40;99.90;;;;;;5047465;28;20221;-78
2021/09/07 03:53:06;;;;;;;7.68;5.18;;;13.40;99.90;;;;;;5047557;28;21298;-78
2021/09/07 03:55:31;;;;;;;6.35;4.55;;;13.40;99.90;;;;;;5047317;28;20173;-77
2021/09/07 03:57:57;;;;;;;7.65;4.75;;;13.40;99.90;;;;;;5065620;28;20169;-78
2021/09/07 04:00:22;;;;;;;7.07;5.13;;;13.40;99.90;;;;;;5047126;28;21065;-79
2021/09/07 04:02:48;;;;;;;7.47;4.72;;;13.40;99.90;;;;;;5049467;28;20488;-79
2021/09/07 04:05:14;;;;;;;7.72;4.93;;;13.40;99.90;;;;;;5050189;28;20193;-77
2021/09/07 04:07:39;;;;;;;6.70;5.40;;;13.40;99.90;;;;;;5069210;28;20922;-80
2021/09/07 04:10:06;;;;;;;7.75;5.35;;;13.50;99.90;;;;;;5069193;28;20205;-79
2021/09/07 04:12:32;;;;;;;8.77;5.00;;;13.50;99.90;;;;;;5068307;28;20178;-79
2021/09/07 04:14:57;;;;;;;6.63;4.93;;;13.50;99.90;;;;;;5050791;28;20208;-77
2021/09/07 04:17:23;;;;;;;8.00;4.82;;;13.50;99.90;;;;;;5050944;28;20296;-77
2021/09/07 04:19:48;;;;;;;7.00;5.10;;;13.50;99.90;;;;;;5051102;28;20227;-79
2021/09/07 04:22:14;;;;;;;7.07;5.10;;;13.60;99.90;;;;;;5068425;28;20185;-77
2021/09/07 04:24:40;;;;;;;9.38;5.38;;;13.60;99.90;;;;;;5068458;28;20188;-80
2021/09/07 04:27:05;;;;;;;8.80;5.55;;;13.60;99.90;;;;;;5068195;28;20185;-78
2021/09/07 04:29:31;;;;;;;8.07;5.63;;;13.50;99.90;;;;;;5050348;28;20250;-81
2021/09/07 04:31:56;;;;;;;8.00;5.47;;;13.50;99.90;;;;;;5068247;28;20267;-77
2021/09/07 04:34:22;;;;;;;8.80;5.85;;;13.50;99.90;;;;;;5067284;28;20208;-80
2021/09/07 04:36:48;;;;;;;8.73;5.82;;;13.50;99.90;;;;;;5067964;28;20178;-79
2021/09/07 04:39:13;;;;;;;8.25;6.13;;;13.60;99.90;;;;;;5067849;28;20177;-79
2021/09/07 04:41:39;;;;;;;9.00;5.65;;;13.50;99.90;;;;;;5049939;28;20193;-78
2021/09/07 04:44:05;;;;;;;9.57;5.90;;;13.50;99.90;;;;;;5049891;28;20181;-78
2021/09/07 04:46:30;;;;;;;7.45;5.68;;;13.60;99.90;;;;;;5050453;28;20178;-78
2021/09/07 04:48:56;;;;;;;7.80;5.53;;;13.60;99.90;;;;;;5068187;28;20247;-78
2021/09/07 04:51:26;;;;;;;6.95;5.63;;;13.60;99.90;;;;;;5066870;28;20209;-78
2021/09/07 04:53:51;;;;;;;7.65;5.85;;;13.60;99.90;;;;;;5066929;28;20221;-79
2021/09/07 04:56:20;;;;;;;8.73;5.55;;;13.70;99.90;;;;;;5066888;28;20221;-77
2021/09/07 04:58:46;;;;;;;7.80;6.30;;;13.70;99.90;;;;;;5049681;28;20655;-79
2021/09/07 05:01:11;;;;;;;7.07;5.70;;;13.80;99.90;;;;;;5066832;28;20240;-78
2021/09/07 05:03:37;;;;;;;7.97;5.60;;;13.90;99.90;;;;;;5067208;28;20186;-79
2021/09/07 05:06:03;;;;;;;9.57;6.40;;;13.90;99.90;;;;;;5065852;28;20242;-78
2021/09/07 05:08:29;;;;;;;8.20;5.82;;;14.00;99.90;;;;;;5049112;28;21551;-79
2021/09/07 05:10:54;;;;;;;10.25;6.15;;;14.00;99.90;;;;;;5049116;28;20201;-80
2021/09/07 05:13:21;;;;;;;9.05;5.95;;;14.00;99.90;;;;;;5067964;28;20197;-80
2021/09/07 05:15:46;;;;;;;10.90;6.20;;;14.10;99.90;;;;;;5050873;28;20261;-80
2021/09/07 05:18:12;;;;;;;8.60;5.85;;;14.20;99.90;;;;;;5050086;28;20281;-79
2021/09/07 05:20:38;;;;;;;8.93;5.90;;;14.20;99.90;;;;;;5068458;28;20197;-78
2021/09/07 05:23:03;;;;;;;9.75;5.18;;;14.30;99.90;;;;;;5050438;28;20594;-78
2021/09/07 05:25:30;;;;;;;9.35;6.05;;;14.20;99.90;;;;;;5050074;28;20185;-79
2021/09/07 05:27:56;;;;;;;10.13;5.75;;;14.30;99.90;;;;;;5050080;28;20235;-79
2021/09/07 05:30:22;;;;;;;8.52;5.57;;;14.30;99.90;;;;;;5067224;28;20197;-78
2021/09/07 05:32:47;;;;;;;12.60;5.80;;;14.40;99.90;;;;;;5068050;28;20207;-80
2021/09/07 05:35:13;;;;;;;10.73;6.40;;;14.40;99.90;;;;;;5067957;28;20647;-81
2021/09/07 05:37:40;;;;;;;6.80;5.30;;;14.50;99.90;;;;;;5068815;28;20177;-79
2021/09/07 05:40:11;;;;;;;8.35;5.55;;;14.50;99.90;;;;;;5049497;28;20194;-80
2021/09/07 05:42:41;;;;;;;8.40;6.13;;;14.60;99.90;;;;;;5065454;28;20716;-79
2021/09/07 05:45:07;;;;;;;7.68;5.72;;;14.70;99.90;;;;;;5066316;28;20177;-78
2021/09/07 05:47:33;;;;;;;9.02;5.72;;;14.80;99.90;;;;;;5067381;28;20197;-79
2021/09/07 05:49:58;;;;;;;7.43;5.63;;;14.80;99.90;;;;;;5067584;28;20201;-79
2021/09/07 05:52:24;;;;;;;9.77;6.13;;;15.00;99.90;;;;;;5049701;28;20646;-78
2021/09/07 05:54:49;;;;;;;7.20;5.15;;;15.10;99.90;;;;;;5067188;28;20254;-79
2021/09/07 05:57:15;;;;;;;8.30;5.97;;;15.20;99.90;;;;;;5049307;28;20177;-78
2021/09/07 05:59:41;;;;;;;10.98;6.05;;;15.30;99.90;;;;;;5067473;28;20170;-79
2021/09/07 06:02:06;;;;;;;9.20;6.35;;;15.30;99.90;;;;;;5048832;28;20182;-79
2021/09/07 06:04:32;;;;;;;9.80;6.63;;;15.40;99.90;;;;;;5049295;28;20207;-79
2021/09/07 06:06:57;;;;;;;8.13;6.18;;;15.50;99.90;;;;;;5049245;28;20714;-78
2021/09/07 06:09:23;;;;;;;6.65;5.47;;;15.60;99.90;;;;;;5040730;28;20292;-81
2021/09/07 06:11:48;;;;;;;8.20;5.53;;;15.60;99.90;;;;;;5066616;28;20225;-78
2021/09/07 06:14:14;;;;;;;7.18;5.80;;;15.70;99.90;;;;;;5048405;28;20205;-78
2021/09/07 06:16:39;;;;;;;10.38;5.75;;;15.70;99.90;;;;;;5066159;28;20232;-79
2021/09/07 06:19:05;;;;;;;8.35;5.90;;;15.80;99.90;;;;;;5066043;28;20177;-80
2021/09/07 06:21:31;;;;;;;7.82;5.50;;;15.90;99.90;;;;;;5048321;28;20213;-77
2021/09/07 06:23:56;;;;;;;7.97;5.90;;;16.00;99.90;;;;;;5048729;28;20293;-77
2021/09/07 06:26:22;;;;;;;9.07;5.95;;;16.10;99.90;;;;;;5065882;28;20192;-79
2021/09/07 06:28:47;;;;;;;9.80;6.28;;;16.20;99.90;;;;;;5066764;28;20181;-81
2021/09/07 06:31:13;;;;;;;8.13;5.40;;;16.10;99.90;;;;;;5048507;28;20212;-79
2021/09/07 06:33:38;;;;;;;7.35;5.70;;;16.20;99.90;;;;;;5048827;28;20280;-79
2021/09/07 06:36:04;;;;;;;7.40;5.50;;;16.20;99.90;;;;;;5048374;28;20189;-80
2021/09/07 06:38:30;;;;;;;8.82;6.50;;;16.20;99.90;;;;;;5066637;28;20192;-79
2021/09/07 06:40:55;;;;;;;11.43;6.22;;;16.30;99.90;;;;;;5066047;28;20194;-79
2021/09/07 06:43:21;;;;;;;9.90;6.90;;;16.50;99.90;;;;;;5066136;28;20200;-78
2021/09/07 06:45:47;;;;;;;10.82;6.80;;;16.60;99.90;;;;;;5049411;28;20238;-79
2021/09/07 06:48:13;;;;;;;8.40;6.47;;;16.60;99.90;;;;;;5067350;28;20205;-78
2021/09/07 06:50:39;;;;;;;10.70;6.97;;;16.70;99.90;;;;;;5050059;28;20216;-78
2021/09/07 06:53:05;;;;;;;9.95;7.15;;;16.70;99.90;;;;;;5050007;28;20213;-80
2021/09/07 06:55:30;;;;;;;10.77;7.13;;;16.80;99.90;;;;;;5068395;28;20181;-79
2021/09/07 06:57:57;;;;;;;10.10;6.70;;;16.80;99.90;;;;;;5068858;28;20256;-78
2021/09/07 07:00:23;;;;;;;7.90;6.25;;;16.90;99.90;;;;;;5067461;28;20288;-78
2021/09/07 07:02:49;;;;;;;9.38;6.65;;;17.00;99.90;;;;;;5067875;28;20165;-79
2021/09/07 07:05:15;;;;;;;10.02;6.95;;;17.10;99.90;;;;;;5067073;28;20189;-79
2021/09/07 07:07:41;;;;;;;10.48;7.28;;;17.20;99.90;;;;;;5068050;28;20182;-79
2021/09/07 07:10:07;;;;;;;9.70;6.93;;;17.20;99.90;;;;;;5067295;28;20209;-79
2021/09/07 07:12:32;;;;;;;10.93;7.80;;;17.40;99.90;;;;;;5050881;28;20181;-79
2021/09/07 07:14:58;;;;;;;12.23;7.97;;;17.50;99.90;;;;;;5050694;28;20686;-78
2021/09/07 07:17:23;;;;;;;11.20;7.75;;;17.60;99.90;;;;;;5067640;28;20768;-79
2021/09/07 07:19:51;;;;;;;10.05;8.07;;;17.70;99.90;;;;;;5068928;28;20182;-79
2021/09/07 07:22:16;;;;;;;10.98;8.10;;;17.70;99.90;;;;;;5066670;28;20224;-79
2021/09/07 07:24:42;;;;;;;9.60;7.28;;;17.80;99.90;;;;;;5068797;28;20186;-78
2021/09/07 07:27:07;;;;;;;14.60;8.90;;;17.90;99.90;;;;;;5069279;28;20246;-79
2021/09/07 07:29:33;;;;;;;14.43;9.15;;;18.10;99.90;;;;;;5068264;28;20196;-79
2021/09/07 07:31:59;;;;;;;15.68;8.98;;;18.10;99.90;;;;;;5068073;28;20276;-78
2021/09/07 07:34:24;;;;;;;14.40;8.90;;;18.30;99.90;;;;;;5050388;28;20240;-79
2021/09/07 07:36:54;;;;;;;13.65;9.80;;;18.30;99.90;;;;;;5051051;28;20185;-79
2021/09/07 07:39:20;;;;;;;14.52;9.45;;;18.50;99.90;;;;;;5054026;28;20181;-79
2021/09/07 07:41:46;;;;;;;15.93;9.95;;;18.60;99.90;;;;;;5069927;28;20189;-78
2021/09/07 07:44:12;;;;;;;13.70;10.07;;;18.70;99.90;;;;;;5049469;28;20536;-78
2021/09/07 07:46:37;;;;;;;13.20;9.35;;;18.70;99.90;;;;;;5067507;28;20196;-77
2021/09/07 07:49:03;;;;;;;16.73;10.60;;;18.80;99.90;;;;;;5068255;28;20201;-78
2021/09/07 07:51:29;;;;;;;15.63;10.02;;;19.00;99.90;;;;;;5049805;28;20202;-78
2021/09/07 07:53:55;;;;;;;17.13;10.30;;;19.10;99.90;;;;;;5068298;28;20223;-78
2021/09/07 07:56:20;;;;;;;16.70;10.85;;;19.00;99.90;;;;;;5067565;28;20231;-79
2021/09/07 07:58:46;;;;;;;14.23;10.05;;;19.00;99.90;;;;;;5067883;28;20184;-78
2021/09/07 08:01:11;;;;;;;16.25;10.52;;;19.10;99.90;;;;;;5067077;28;21167;-79
2021/09/07 08:03:37;;;;;;;13.88;9.85;;;19.20;99.90;;;;;;5049179;28;20580;-79
2021/09/07 08:06:03;;;;;;;15.27;9.38;;;19.50;99.90;;;;;;5066696;28;20193;-77
2021/09/07 08:08:28;;;;;;;12.77;9.30;;;19.50;99.90;;;;;;5068155;28;20720;-81
2021/09/07 08:10:54;;;;;;;12.75;8.48;;;19.60;99.90;;;;;;5067046;28;20618;-77
2021/09/07 08:13:19;;;;;;;12.88;9.13;;;19.60;99.90;;;;;;5064357;28;20423;-79
2021/09/07 08:15:45;;;;;;;12.23;8.60;;;19.70;99.90;;;;;;5062276;28;20189;-79
2021/09/07 08:18:10;;;;;;;12.60;8.07;;;19.90;99.90;;;;;;5049174;28;20178;-78
2021/09/07 08:20:36;;;;;;;15.02;10.20;;;19.80;99.90;;;;;;5067856;28;20225;-79
2021/09/07 08:23:03;;;;;;;15.85;9.88;;;19.70;99.90;;;;;;5047462;28;20656;-79
2021/09/07 08:25:29;;;;;;;14.68;9.40;;;19.60;99.90;;;;;;5046179;28;20204;-79
2021/09/07 08:27:54;;;;;;;14.48;9.52;;;19.70;99.90;;;;;;5047749;28;20201;-79
2021/09/07 08:30:20;;;;;;;15.02;9.00;;;19.90;99.90;;;;;;5064672;28;20308;-81
2021/09/07 08:32:46;;;;;;;15.52;9.45;;;19.90;99.90;;;;;;5046936;28;20185;-81
2021/09/07 08:35:13;;;;;;;13.80;8.55;;;20.10;99.90;;;;;;5064610;28;20190;-79
2021/09/07 08:37:40;;;;;;;11.30;7.75;;;20.20;99.90;;;;;;5046901;28;20177;-81
2021/09/07 08:40:08;;;;;;;13.52;7.88;;;20.30;99.90;;;;;;5064784;28;20599;-79
2021/09/07 08:42:35;;;;;;;11.85;7.20;;;20.40;99.90;;;;;;5046116;28;20480;-79
2021/09/07 08:45:06;;;;;;;10.85;7.38;;;20.40;99.90;;;;;;5046392;28;20189;-80
2021/09/07 08:47:32;;;;;;;9.15;6.50;;;20.40;99.90;;;;;;5064571;28;20188;-81
2021/09/07 08:50:01;;;;;;;10.90;6.93;;;20.40;99.90;;;;;;5047011;28;20186;-79
2021/09/07 08:52:26;;;;;;;11.25;6.70;;;20.40;99.90;;;;;;5064650;28;20178;-80
2021/09/07 08:54:52;;;;;;;9.40;5.82;;;20.60;99.90;;;;;;5064156;28;20209;-80
2021/09/07 08:57:17;;;;;;;8.80;5.72;;;20.60;99.90;;;;;;5046640;28;20659;-79
2021/09/07 08:59:43;;;;;;;7.70;5.45;;;20.60;99.90;;;;;;5046591;28;20211;-81
2021/09/07 09:02:13;;;;;;;7.43;4.82;;;20.80;99.90;;;;;;5065115;28;20189;-80
2021/09/07 09:04:39;;;;;;;7.72;4.70;;;20.80;99.90;;;;;;5046872;28;20217;-79
2021/09/07 09:07:04;;;;;;;8.52;4.15;;;20.80;99.90;;;;;;5064624;28;20185;-81
2021/09/07 09:09:35;;;;;;;8.02;5.15;;;20.70;99.90;;;;;;5047027;28;20554;-79
2021/09/07 09:12:01;;;;;;;5.93;4.28;;;20.70;99.90;;;;;;5046740;28;20201;-80
2021/09/07 09:14:30;;;;;;;5.68;3.90;;;20.80;99.90;;;;;;5045835;28;20194;-79
2021/09/07 09:16:56;;;;;;;6.47;4.35;;;20.80;99.90;;;;;;5063889;28;20280;-80
2021/09/07 09:19:21;;;;;;;7.78;4.90;;;20.70;99.90;;;;;;5064798;28;20307;-79
2021/09/07 09:21:48;;;;;;;6.22;4.60;;;20.70;99.90;;;;;;5045782;28;20193;-79
2021/09/07 09:24:18;;;;;;;5.43;3.80;;;20.80;99.90;;;;;;5046185;28;20189;-79
2021/09/07 09:26:57;;;;;;;5.30;3.90;;;20.90;99.90;;;;;;5063999;28;20189;-80
2021/09/07 09:29:29;;;;;;;6.32;3.72;;;20.90;99.90;;;;;;5046567;28;20212;-81
2021/09/07 09:31:57;;;;;;;5.28;3.38;;;20.80;99.90;;;;;;5059051;28;20201;-79
2021/09/07 09:34:24;;;;;;;3.40;2.58;;;20.80;99.90;;;;;;5045239;28;20224;-83
2021/09/07 09:37:20;;;;;;;4.32;3.42;;;20.90;99.90;;;;;;5066113;28;20182;-83
2021/09/07 09:39:51;;;;;;;4.07;2.78;;;21.00;99.90;;;;;;5026481;28;20209;-84
2021/09/07 09:42:30;;;;;;;4.15;2.67;;;20.90;99.90;;;;;;5040417;28;20189;-83
2021/09/07 09:45:06;;;;;;;4.35;2.70;;;21.00;99.90;;;;;;5046956;28;20169;-82
2021/09/07 09:47:38;;;;;;;5.13;2.63;;;21.20;99.90;;;;;;5066842;28;20186;-83
2021/09/07 09:50:04;;;;;;;4.25;3.00;;;21.30;99.90;;;;;;5065299;28;20198;-84
2021/09/07 09:52:36;;;;;;;4.22;2.58;;;21.40;99.90;;;;;;5047858;28;20177;-83
2021/09/07 09:55:08;;;;;;;5.03;3.40;;;21.80;99.90;;;;;;5064886;28;20280;-82
2021/09/07 09:57:35;;;;;;;4.45;2.90;;;21.80;99.90;;;;;;5047331;28;20189;-83
2021/09/07 10:00:02;;;;;;;5.00;3.38;;;21.80;99.90;;;;;;5062789;28;20178;-83
2021/09/07 10:02:30;;;;;;;3.85;2.80;;;21.70;99.90;;;;;;5064347;28;20170;-83
2021/09/07 10:04:55;;;;;;;5.13;3.03;;;21.90;99.90;;;;;;5065476;28;20186;-83
2021/09/07 10:07:21;;;;;;;2.38;1.83;;;21.60;99.90;;;;;;5066683;28;20555;-83
2021/09/07 10:09:48;;;;;;;3.28;2.10;;;21.60;99.90;;;;;;5067047;28;20590;-84
2021/09/07 10:12:22;;;;;;;6.07;2.78;;;21.70;99.90;;;;;;5065810;28;20265;-83
2021/09/07 10:15:10;;;;;;;3.25;2.35;;;21.60;99.80;;;;;;5048957;28;20678;-84
2021/09/07 10:17:51;;;;;;;4.57;3.25;;;21.60;99.90;;;;;;5066463;28;20655;-84
2021/09/07 10:20:52;;;;;;;4.63;3.05;;;21.50;99.90;;;;;;5048772;28;20240;-83
2021/09/07 10:23:56;;;;;;;5.22;3.03;;;21.90;99.90;;;;;;4999510;28;20200;-83
2021/09/07 10:26:38;;;;;;;5.90;3.88;;;22.30;99.90;;;;;;5066622;28;20847;-82
2021/09/07 10:29:06;;;;;;;4.80;3.30;;;22.50;99.90;;;;;;5066429;28;20678;-83
2021/09/07 10:31:58;;;;;;;5.65;3.35;;;22.60;99.90;;;;;;5066097;28;20235;-83
2021/09/07 10:34:26;;;;;;;4.03;3.50;;;22.30;99.90;;;;;;5044415;28;20373;-83
2021/09/07 10:37:04;;;;;;;4.45;3.40;;;22.40;99.90;;;;;;5056333;28;20613;-83
2021/09/07 10:39:35;;;;;;;5.90;3.88;;;22.70;99.90;;;;;;5047919;28;20204;-83
2021/09/07 10:42:12;;;;;;;4.53;3.80;;;22.90;99.90;;;;;;5047583;28;20197;-83
2021/09/07 10:44:40;;;;;;;5.60;3.83;;;23.00;99.90;;;;;;5064068;28;20181;-83
2021/09/07 10:47:14;;;;;;;7.80;4.45;;;22.80;99.90;;;;;;5064009;28;20323;-83
2021/09/07 10:49:53;;;;;;;9.45;4.57;;;22.80;99.90;;;;;;5065768;28;20230;-83
2021/09/07 10:52:25;;;;;;;7.10;4.50;;;22.70;99.90;;;;;;5065917;28;20178;-84
2021/09/07 10:55:09;;;;;;;6.68;4.50;;;22.70;99.90;;;;;;5056047;28;20197;-83
2021/09/07 10:57:35;;;;;;;5.57;4.00;;;22.70;99.90;;;;;;5056475;28;20242;-82
2021/09/07 11:00:19;;;;;;;5.38;3.95;;;22.90;99.90;;;;;;5048727;28;20699;-82
2021/09/07 11:02:53;;;;;;;5.55;4.00;;;23.00;99.90;;;;;;5048773;28;20166;-83
2021/09/07 11:05:25;;;;;;;4.82;3.70;;;23.10;99.90;;;;;;5049205;28;20179;-83
2021/09/07 11:08:00;;;;;;;4.75;3.17;;;22.90;99.90;;;;;;5065830;28;20700;-86
2021/09/07 11:10:27;;;;;;;4.60;3.10;;;23.00;99.90;;;;;;5056841;28;20250;-82
2021/09/07 11:13:02;;;;;;;3.72;3.05;;;22.90;99.90;;;;;;5052831;28;20280;-84
2021/09/07 11:15:34;;;;;;;5.07;3.08;;;23.10;99.90;;;;;;5061169;28;20682;-85
2021/09/07 11:18:05;;;;;;;3.22;2.70;;;23.10;99.90;;;;;;5068900;28;20194;-84
2021/09/07 11:20:33;;;;;;;5.00;3.22;;;23.10;99.30;;;;;;5051980;28;20205;-83
2021/09/07 11:23:11;;;;;;;3.88;2.80;;;22.90;99.90;;;;;;5067873;28;20708;-83
2021/09/07 11:25:38;;;;;;;2.92;2.15;;;22.80;99.90;;;;;;5051692;28;20580;-83
2021/09/07 11:28:06;;;;;;;4.10;2.72;;;22.90;99.90;;;;;;5051305;28;20268;-84
2021/09/07 11:30:37;;;;;;;4.88;2.95;;;23.00;99.90;;;;;;5065426;28;20201;-84
2021/09/07 11:33:10;;;;;;;3.83;2.53;;;23.10;99.90;;;;;;5079765;28;20268;-86
2021/09/07 11:35:47;;;;;;;5.30;2.85;;;23.20;99.90;;;;;;5055224;28;20174;-86
2021/09/07 11:38:20;;;;;;;3.78;2.65;;;23.40;99.90;;;;;;5054143;28;20524;-85
2021/09/07 11:40:54;;;;;;;4.68;2.78;;;23.40;99.90;;;;;;5055032;28;20950;-85
2021/09/07 11:43:33;;;;;;;5.00;3.03;;;23.60;99.20;;;;;;5071555;28;20812;-85
2021/09/07 11:46:08;;;;;;;5.05;3.10;;;23.30;97.80;;;;;;5062633;28;20238;-84
2021/09/07 11:48:35;;;;;;;3.72;2.80;;;23.30;97.60;;;;;;5052067;28;20192;-83
2021/09/07 11:51:01;;;;;;;4.13;2.97;;;23.50;98.40;;;;;;5052595;28;20266;-86
2021/09/07 11:53:27;;;;;;;3.90;2.92;;;23.50;97.90;;;;;;5054812;28;20251;-87
2021/09/07 11:55:54;;;;;;;3.47;2.65;;;23.60;95.90;;;;;;5070465;28;20185;-85
2021/09/07 11:58:40;;;;;;;3.53;2.47;;;23.80;96.30;;;;;;5072741;28;20257;-87
2021/09/07 12:01:18;;;;;;;3.20;2.33;;;23.70;96.30;;;;;;5054869;28;20219;-86
2021/09/07 12:03:51;;;;;;;3.33;2.50;;;23.80;97.00;;;;;;5053576;28;20192;-83
2021/09/07 12:06:19;;;;;;;2.30;1.92;;;23.60;96.50;;;;;;5069073;28;20243;-85
2021/09/07 12:08:47;;;;;;;3.60;2.70;;;23.50;97.70;;;;;;5067046;28;20178;-83
2021/09/07 12:11:21;;;;;;;4.57;2.53;;;23.50;97.60;;;;;;5067554;28;20240;-85
2021/09/07 12:14:03;;;;;;;6.75;2.58;;;23.50;98.10;;;;;;5059702;28;20483;-84
2021/09/07 12:16:29;;;;;;;3.13;2.42;;;23.60;98.40;;;;;;5065881;28;20193;-84
2021/09/07 12:18:55;;;;;;;3.00;2.20;;;23.70;97.30;;;;;;5067657;28;20227;-84
2021/09/07 12:21:24;;;;;;;3.15;2.20;;;24.00;97.70;;;;;;5065702;28;20197;-86
2021/09/07 12:23:52;;;;;;;3.70;2.30;;;24.20;97.10;;;;;;5048629;28;20668;-85
2021/09/07 12:26:36;;;;;;;2.60;2.20;;;24.00;96.10;;;;;;5048922;28;20457;-86
2021/09/07 12:29:17;;;;;;;5.70;3.00;;;24.00;97.20;;;;;;5067167;28;20196;-85
2021/09/07 12:31:46;;;;;;;3.05;2.30;;;23.80;97.20;;;;;;5049905;28;20205;-86
2021/09/07 12:34:19;;;;;;;5.63;2.10;;;23.90;96.70;;;;;;5049215;28;20208;-84
2021/09/07 12:36:54;;;;;;;2.67;2.00;;;23.90;97.10;;;;;;5067337;28;20177;-86
2021/09/07 12:39:20;;;;;;;2.13;1.88;;;24.20;96.90;;;;;;5050184;28;20239;-85
2021/09/07 12:41:46;;;;;;;2.50;2.28;;;24.20;95.60;;;;;;5067093;28;20197;-86
2021/09/07 12:44:16;;;;;;;3.25;2.40;;;24.20;95.20;;;;;;5048446;28;20725;-84
2021/09/07 12:46:43;;;;;;;2.10;1.90;;;24.30;95.40;;;;;;5048379;28;20219;-86
2021/09/07 12:49:09;;;;;;;2.47;2.05;;;24.20;95.30;;;;;;5048293;28;20189;-86